Metar z połowy godziny Komunikat METAR ze strony awiacja.imgw.pl Metar G30 EPMB METAR EPMB 230800Z 11006KT 3000 BR NSC M08/M09 Q1011 RMK M079 090 0/0=